Time;durP1;ratioP1;P1;durP2;ratioP2;P2;SDS_P1;SDS_P2;PMS_P1;PMS_P2;Temp;Humidity;BMP_temperature;BMP_pressure;BME280_temperature;BME280_humidity;BME280_pressure;Samples;Min_cycle;Max_cycle;Signal;HPM_P1;HPM_P2
2022/08/29 06:07:05;;;;;;;0.60;0.60;;;;;;;17.96;74.08;102325.53;2100235;28;20056;-70
2022/08/29 06:08:08;;;;;;;0.40;0.40;;;;;;;18.02;73.93;102331.50;2102891;28;20063;-69
2022/08/29 06:09:11;;;;;;;0.50;0.50;;;;;;;18.05;74.24;102323.38;2105249;28;20477;-69
2022/08/29 06:10:18;;;;;;;0.50;0.50;;;;;;;18.09;74.32;102332.47;2110154;28;20103;-69
2022/08/29 06:11:24;;;;;;;0.45;0.45;;;;;;;18.10;74.16;102331.31;2108212;28;20391;-69
2022/08/29 06:12:30;;;;;;;0.50;0.50;;;;;;;18.11;74.65;102321.97;2103793;28;20044;-69
2022/08/29 06:13:35;;;;;;;0.50;0.50;;;;;;;18.10;75.12;102325.84;2102316;28;20114;-69
2022/08/29 06:14:41;;;;;;;0.50;0.50;;;;;;;18.14;74.86;102334.91;2113123;28;20090;-69
2022/08/29 06:15:51;;;;;;;0.50;0.50;;;;;;;18.15;74.73;102327.53;2104934;28;20569;-70
2022/08/29 06:16:55;;;;;;;0.50;0.50;;;;;;;18.15;75.02;102331.06;2100449;28;20052;-69
2022/08/29 06:17:57;;;;;;;0.57;0.57;;;;;;;18.17;75.03;102334.19;2113422;27;20032;-71
2022/08/29 06:19:00;;;;;;;0.50;0.50;;;;;;;18.19;74.64;102331.16;2114792;28;20104;-69
2022/08/29 06:20:07;;;;;;;0.50;0.50;;;;;;;18.20;74.91;102329.97;2106166;28;20143;-70
2022/08/29 06:21:12;;;;;;;0.50;0.50;;;;;;;18.20;75.01;102330.78;2105173;28;20056;-69
2022/08/29 06:22:18;;;;;;;0.57;0.57;;;;;;;18.23;75.04;102324.59;2107561;28;20452;-69
2022/08/29 06:23:22;;;;;;;0.50;0.50;;;;;;;18.25;74.96;102333.22;2115698;27;20065;-70
2022/08/29 06:24:30;;;;;;;0.50;0.50;;;;;;;18.25;75.10;102330.47;2112355;27;20100;-69
2022/08/29 06:25:34;;;;;;;0.50;0.50;;;;;;;18.29;74.98;102327.84;2114685;28;20043;-69
2022/08/29 06:26:43;;;;;;;0.50;0.50;;;;;;;18.30;74.70;102330.22;2115286;27;20047;-70
2022/08/29 06:27:47;;;;;;;0.50;0.50;;;;;;;18.31;74.94;102334.56;2111694;27;20051;-69
2022/08/29 06:28:50;;;;;;;0.50;0.50;;;;;;;18.34;75.07;102331.09;2106754;28;20060;-69
2022/08/29 06:29:52;;;;;;;0.50;0.50;;;;;;;18.37;75.19;102335.84;2106409;28;20502;-70
2022/08/29 06:30:55;;;;;;;0.40;0.40;;;;;;;18.39;74.59;102324.59;2110240;27;20379;-69
2022/08/29 06:31:58;;;;;;;0.45;0.45;;;;;;;18.43;74.37;102331.72;2110319;28;20173;-70
2022/08/29 06:33:01;;;;;;;0.43;0.43;;;;;;;18.46;74.43;102333.75;2114227;27;20060;-70
2022/08/29 06:34:06;;;;;;;0.50;0.50;;;;;;;18.48;74.69;102331.44;2112812;27;20376;-70
2022/08/29 06:35:08;;;;;;;0.55;0.55;;;;;;;18.49;74.48;102335.75;2112492;28;20130;-70
2022/08/29 06:36:12;;;;;;;0.50;0.50;;;;;;;18.50;74.25;102337.34;2112305;27;20063;-69
2022/08/29 06:37:14;;;;;;;0.50;0.50;;;;;;;18.51;74.17;102336.19;2115341;27;20095;-69
2022/08/29 06:38:18;;;;;;;0.40;0.40;;;;;;;18.56;74.15;102340.59;2112568;28;20043;-70
2022/08/29 06:39:22;;;;;;;0.50;0.50;;;;;;;18.56;73.96;102341.41;2111777;27;20044;-70
2022/08/29 06:40:23;;;;;;;0.45;0.45;;;;;;;18.59;74.11;102335.22;2113702;28;20086;-69
2022/08/29 06:41:27;;;;;;;0.50;0.50;;;;;;;18.61;73.65;102338.38;2112469;28;20048;-70
2022/08/29 06:42:33;;;;;;;0.50;0.50;;;;;;;18.60;74.00;102336.78;2111479;28;20735;-69
2022/08/29 06:43:39;;;;;;;0.40;0.40;;;;;;;18.62;73.61;102342.69;2110998;27;20077;-69
2022/08/29 06:44:41;;;;;;;0.50;0.50;;;;;;;18.63;73.69;102341.53;2109426;28;20060;-70
2022/08/29 06:45:46;;;;;;;0.50;0.50;;;;;;;18.65;73.39;102341.97;2115160;27;20172;-70
2022/08/29 06:46:48;;;;;;;0.50;0.50;;;;;;;18.63;73.75;102347.00;2107452;27;20105;-69
2022/08/29 06:47:51;;;;;;;0.50;0.50;;;;;;;18.68;73.15;102352.19;2109496;28;20047;-69
2022/08/29 06:48:54;;;;;;;0.50;0.50;;;;;;;18.69;73.31;102347.53;2113829;27;20055;-69
2022/08/29 06:49:58;;;;;;;0.40;0.40;;;;;;;18.71;73.30;102356.94;2113313;28;20051;-70
2022/08/29 06:51:00;;;;;;;0.50;0.50;;;;;;;18.70;72.93;102352.63;2113819;27;20059;-69
2022/08/29 06:52:04;;;;;;;0.50;0.50;;;;;;;18.71;73.08;102348.75;2114678;28;20144;-69
2022/08/29 06:53:06;;;;;;;0.50;0.50;;;;;;;18.73;72.70;102354.66;2108227;27;20062;-69
2022/08/29 06:54:30;;;;;;;0.40;0.40;;;;;;;18.73;72.85;102362.88;2102169;28;20052;-70
2022/08/29 06:55:33;;;;;;;0.50;0.50;;;;;;;18.73;73.30;102351.91;2105261;28;20569;-69
2022/08/29 06:56:36;;;;;;;0.40;0.40;;;;;;;18.77;73.14;102349.25;2115082;27;20052;-69
2022/08/29 06:58:33;;;;;;;0.50;0.50;;;;;;;18.76;73.18;102358.59;2123554;27;20633;-70
2022/08/29 06:59:35;;;;;;;0.47;0.47;;;;;;;18.79;72.98;102355.19;2117815;28;20107;-69
2022/08/29 07:00:39;;;;;;;0.50;0.50;;;;;;;18.81;72.85;102348.19;2119428;27;20051;-69
2022/08/29 07:01:42;;;;;;;0.40;0.40;;;;;;;18.84;72.50;102349.41;2118819;28;20577;-69
2022/08/29 07:02:47;;;;;;;0.40;0.40;;;;;;;18.87;72.47;102344.00;2109454;28;20872;-69
2022/08/29 07:03:54;;;;;;;0.40;0.40;;;;;;;18.88;72.45;102348.34;2109288;28;20086;-68
2022/08/29 07:04:57;;;;;;;0.40;0.40;;;;;;;18.93;72.24;102348.03;2106204;28;20132;-67
2022/08/29 07:05:59;;;;;;;0.32;0.32;;;;;;;18.99;72.18;102343.88;2110137;28;20052;-67
2022/08/29 07:07:02;;;;;;;0.40;0.40;;;;;;;19.05;72.13;102345.16;2108037;28;20587;-67
2022/08/29 07:08:04;;;;;;;0.40;0.40;;;;;;;19.11;71.78;102343.72;2108841;28;20047;-67
2022/08/29 07:09:08;;;;;;;0.40;0.40;;;;;;;19.23;71.79;102345.50;2111968;28;20589;-68
2022/08/29 07:10:11;;;;;;;0.50;0.50;;;;;;;19.35;71.37;102342.63;2105348;28;20483;-68
2022/08/29 07:11:14;;;;;;;0.40;0.40;;;;;;;19.47;71.27;102344.41;2107037;28;20069;-67
2022/08/29 07:12:15;;;;;;;0.50;0.50;;;;;;;19.58;70.45;102348.13;2105716;28;20490;-68
2022/08/29 07:13:18;;;;;;;0.40;0.40;;;;;;;19.73;69.88;102347.22;2111946;28;20500;-67
2022/08/29 07:14:22;;;;;;;0.50;0.50;;;;;;;19.89;69.75;102350.63;2111471;28;20055;-68
2022/08/29 07:15:24;;;;;;;0.50;0.50;;;;;;;20.01;69.25;102353.19;2107032;28;20500;-68
2022/08/29 07:16:28;;;;;;;0.50;0.50;;;;;;;20.10;68.23;102356.44;2107729;28;20076;-68
2022/08/29 07:17:30;;;;;;;0.40;0.40;;;;;;;20.19;67.86;102357.00;2106998;28;20507;-68
2022/08/29 07:18:33;;;;;;;0.40;0.40;;;;;;;20.26;67.75;102354.38;2103361;28;20192;-68
2022/08/29 07:19:36;;;;;;;0.40;0.40;;;;;;;20.30;67.21;102360.69;2104361;28;20515;-68
2022/08/29 07:20:39;;;;;;;0.47;0.47;;;;;;;20.29;66.60;102361.88;2108948;28;20423;-68
2022/08/29 07:21:41;;;;;;;0.45;0.45;;;;;;;20.33;66.36;102359.97;2108631;28;20052;-68
2022/08/29 07:22:44;;;;;;;0.40;0.40;;;;;;;20.34;66.53;102367.03;2110400;28;20590;-68
2022/08/29 07:23:47;;;;;;;0.50;0.50;;;;;;;20.36;66.08;102364.72;2107613;28;20068;-68
2022/08/29 07:24:49;;;;;;;0.40;0.40;;;;;;;20.40;66.08;102366.34;2105035;28;20056;-69
2022/08/29 07:25:52;;;;;;;0.50;0.50;;;;;;;20.44;65.98;102363.66;2106823;28;20408;-68
2022/08/29 07:26:55;;;;;;;0.52;0.52;;;;;;;20.45;65.68;102370.72;2109013;28;20048;-69
2022/08/29 07:27:57;;;;;;;0.50;0.50;;;;;;;20.49;65.58;102368.81;2107923;28;20135;-69
2022/08/29 07:29:05;;;;;;;0.50;0.50;;;;;;;20.52;65.02;102366.13;2111499;28;20200;-69
2022/08/29 07:30:10;;;;;;;0.40;0.40;;;;;;;20.54;64.86;102372.03;2111434;28;20131;-70
2022/08/29 07:31:13;;;;;;;0.50;0.50;;;;;;;20.63;65.00;102364.31;2111500;28;20082;-69
2022/08/29 07:32:16;;;;;;;0.50;0.50;;;;;;;20.72;64.54;102362.09;2108728;28;20118;-69
2022/08/29 07:33:18;;;;;;;0.50;0.50;;;;;;;20.85;64.26;102359.13;2110859;28;20048;-68
2022/08/29 07:34:21;;;;;;;0.60;0.60;;;;;;;21.00;64.11;102366.38;2108276;28;20047;-69
2022/08/29 07:35:24;;;;;;;0.60;0.60;;;;;;;21.21;63.68;102372.94;2109413;28;20059;-69
2022/08/29 07:36:33;;;;;;;0.43;0.43;;;;;;;21.41;63.48;102368.03;2110406;28;20067;-69
2022/08/29 07:37:35;;;;;;;0.50;0.50;;;;;;;21.60;63.15;102368.63;2111146;28;20104;-69
2022/08/29 07:38:39;;;;;;;0.57;0.57;;;;;;;21.69;62.27;102369.09;2110422;28;20098;-69
2022/08/29 07:39:41;;;;;;;0.50;0.50;;;;;;;21.90;62.20;102369.31;2110357;28;20418;-70
2022/08/29 07:40:44;;;;;;;0.60;0.60;;;;;;;22.00;61.40;102382.38;2107483;28;20830;-69
2022/08/29 07:41:47;;;;;;;0.60;0.60;;;;;;;22.17;61.44;102381.72;2110023;28;20067;-68
2022/08/29 07:42:48;;;;;;;0.50;0.50;;;;;;;22.29;59.99;102379.84;2110034;28;20074;-68
2022/08/29 07:43:51;;;;;;;0.50;0.50;;;;;;;22.43;59.36;102382.69;2110764;28;20056;-68
2022/08/29 07:44:54;;;;;;;0.50;0.50;;;;;;;22.58;58.54;102384.38;2109028;28;20043;-68
2022/08/29 07:45:57;;;;;;;0.60;0.60;;;;;;;22.76;57.96;102385.25;2110333;28;20502;-69
2022/08/29 07:47:01;;;;;;;0.60;0.60;;;;;;;22.86;57.90;102392.78;2110777;28;20490;-68
2022/08/29 07:48:03;;;;;;;0.50;0.50;;;;;;;23.04;57.51;102393.66;2110575;28;20113;-69
2022/08/29 07:49:11;;;;;;;0.60;0.60;;;;;;;23.16;56.16;102398.81;2110899;28;20150;-69
2022/08/29 07:50:14;;;;;;;0.50;0.50;;;;;;;23.39;56.13;102397.34;2110909;28;20491;-69
2022/08/29 07:51:21;;;;;;;0.40;0.40;;;;;;;23.53;55.64;102396.59;2108121;28;20055;-69
2022/08/29 07:52:24;;;;;;;0.40;0.40;;;;;;;23.52;55.55;102404.06;2105615;28;20079;-69
2022/08/29 07:53:26;;;;;;;0.40;0.40;;;;;;;23.45;55.23;102401.28;2106178;28;20464;-68
2022/08/29 07:54:30;;;;;;;0.50;0.50;;;;;;;23.37;54.64;102405.22;2106382;28;20142;-69
2022/08/29 07:55:32;;;;;;;0.50;0.50;;;;;;;23.17;54.62;102398.44;2111218;28;20124;-69
2022/08/29 07:56:40;;;;;;;0.40;0.40;;;;;;;23.04;54.48;102396.44;2108264;28;20529;-69
2022/08/29 07:57:45;;;;;;;0.40;0.40;;;;;;;23.03;54.93;102392.06;2108978;28;20429;-69
2022/08/29 07:58:53;;;;;;;0.40;0.40;;;;;;;23.14;54.73;102395.66;2109754;28;20162;-71
2022/08/29 07:59:56;;;;;;;0.50;0.50;;;;;;;23.22;54.94;102397.25;2110044;28;20082;-70
2022/08/29 08:00:59;;;;;;;0.40;0.40;;;;;;;23.33;54.67;102398.09;2109720;28;20433;-69
2022/08/29 08:02:03;;;;;;;0.40;0.40;;;;;;;23.29;55.10;102402.84;2107986;28;20465;-69
2022/08/29 08:03:07;;;;;;;0.50;0.50;;;;;;;23.21;54.64;102403.97;2107575;28;20083;-69
2022/08/29 08:04:10;;;;;;;0.50;0.50;;;;;;;23.23;54.74;102401.63;2109934;28;20122;-69
2022/08/29 08:05:13;;;;;;;0.50;0.50;;;;;;;23.34;54.29;102406.00;2109624;28;20058;-69
2022/08/29 08:06:18;;;;;;;0.50;0.50;;;;;;;23.59;53.73;102400.53;2110096;28;20085;-69
2022/08/29 08:07:20;;;;;;;0.50;0.50;;;;;;;23.76;53.65;102410.81;2108205;28;20043;-69
2022/08/29 08:08:31;;;;;;;;;;;;;;;23.42;53.73;102412.34;2110302;28;20044;-69
2022/08/29 08:09:34;;;;;;;0.50;0.50;;;;;;;24.03;53.50;102408.50;2106439;28;19924;-69
2022/08/29 08:10:38;;;;;;;0.50;0.50;;;;;;;24.34;52.72;102414.00;2102943;28;20521;-69
2022/08/29 08:11:41;;;;;;;0.40;0.40;;;;;;;24.50;52.55;102408.84;2098152;28;20207;-69
2022/08/29 08:12:43;;;;;;;0.40;0.40;;;;;;;24.39;52.48;102410.84;2106018;28;20048;-69
2022/08/29 08:13:47;;;;;;;0.40;0.40;;;;;;;24.32;52.94;102405.34;2102999;28;20101;-69
2022/08/29 08:14:48;;;;;;;0.40;0.40;;;;;;;24.17;53.67;102406.53;2101464;28;20063;-68
2022/08/29 08:15:52;;;;;;;0.30;0.30;;;;;;;23.90;54.56;102399.78;2102549;28;20122;-69
2022/08/29 08:16:55;;;;;;;0.40;0.40;;;;;;;23.69;55.04;102405.28;2104473;28;20150;-69
2022/08/29 08:17:58;;;;;;;0.30;0.30;;;;;;;23.50;55.77;102405.63;2098540;28;20079;-69
2022/08/29 08:19:00;;;;;;;0.40;0.40;;;;;;;23.32;56.17;102404.81;2103285;28;20117;-69
2022/08/29 08:20:06;;;;;;;0.40;0.40;;;;;;;23.29;55.88;102408.34;2103453;28;20131;-69
2022/08/29 08:21:10;;;;;;;0.47;0.47;;;;;;;23.08;56.27;102409.03;2102663;28;20052;-69
2022/08/29 08:22:12;;;;;;;0.40;0.40;;;;;;;22.96;56.66;102408.59;2105072;28;20109;-69
2022/08/29 08:23:15;;;;;;;0.40;0.40;;;;;;;22.85;56.67;102410.50;2102883;28;20138;-69
2022/08/29 08:24:18;;;;;;;0.40;0.40;;;;;;;22.81;56.82;102404.16;2102482;28;20231;-68
2022/08/29 08:25:22;;;;;;;0.40;0.40;;;;;;;22.75;56.57;102400.22;2103813;28;20411;-69
2022/08/29 08:26:26;;;;;;;0.40;0.40;;;;;;;22.74;57.08;102404.91;2102137;28;20048;-68
2022/08/29 08:27:28;;;;;;;0.43;0.43;;;;;;;22.66;57.20;102411.56;2102425;28;20055;-68
2022/08/29 08:28:31;;;;;;;0.50;0.50;;;;;;;22.76;57.37;102413.59;2102410;28;20119;-68
2022/08/29 08:29:34;;;;;;;0.40;0.40;;;;;;;22.79;57.48;102407.31;2101628;28;20040;-69
2022/08/29 08:30:35;;;;;;;0.50;0.50;;;;;;;22.89;57.25;102406.59;2101840;28;20458;-69
2022/08/29 08:31:42;;;;;;;0.40;0.40;;;;;;;22.91;56.22;102414.47;2102997;28;20056;-69
2022/08/29 08:32:47;;;;;;;0.40;0.40;;;;;;;22.84;56.37;102420.72;2104460;28;20132;-69
2022/08/29 08:33:56;;;;;;;0.40;0.40;;;;;;;22.68;57.48;102413.94;2103821;28;20051;-69
2022/08/29 08:34:58;;;;;;;0.38;0.38;;;;;;;22.57;57.61;102415.81;2104446;28;20081;-69
2022/08/29 08:36:01;;;;;;;0.40;0.40;;;;;;;22.49;57.77;102416.91;2104099;28;20048;-69
2022/08/29 08:37:07;;;;;;;0.50;0.50;;;;;;;22.48;57.33;102415.34;2104259;28;20056;-69
2022/08/29 08:38:09;;;;;;;0.40;0.40;;;;;;;22.45;57.76;102416.13;2104198;28;20051;-69
2022/08/29 08:39:13;;;;;;;0.43;0.43;;;;;;;22.43;58.23;102412.94;2104445;28;20048;-69
2022/08/29 08:40:20;;;;;;;0.40;0.40;;;;;;;22.44;58.85;102417.31;2104165;28;20123;-69
2022/08/29 08:41:35;;;;;;;0.40;0.40;;;;;;;22.42;59.29;102416.88;2102404;28;20088;-69
2022/08/29 08:42:42;;;;;;;0.40;0.40;;;;;;;22.48;59.05;102412.59;2102082;28;20100;-69
2022/08/29 08:43:48;;;;;;;0.50;0.50;;;;;;;22.48;59.18;102418.09;2101263;28;20056;-69
2022/08/29 08:45:07;;;;;;;0.30;0.30;;;;;;;22.51;59.09;102411.81;2102790;28;20713;-69
2022/08/29 08:46:10;;;;;;;0.40;0.40;;;;;;;22.64;59.01;102415.88;2099765;28;20108;-68
2022/08/29 08:47:18;;;;;;;0.30;0.30;;;;;;;22.60;59.05;102415.06;2104025;28;20345;-69
2022/08/29 08:48:27;;;;;;;0.40;0.40;;;;;;;22.62;59.11;102415.47;2102525;28;20047;-69
2022/08/29 08:49:37;;;;;;;0.50;0.50;;;;;;;22.76;58.73;102418.31;2101764;28;20052;-69
2022/08/29 08:50:45;;;;;;;0.40;0.40;;;;;;;22.85;58.37;102421.53;2100517;28;20052;-69
2022/08/29 08:51:54;;;;;;;0.40;0.40;;;;;;;22.91;58.38;102423.50;2104148;28;20419;-69
2022/08/29 08:53:03;;;;;;;0.45;0.45;;;;;;;23.03;58.28;102416.88;2104198;28;20562;-70
2022/08/29 08:54:14;;;;;;;0.47;0.47;;;;;;;23.06;58.05;102413.34;2103087;28;20517;-69
2022/08/29 08:55:27;;;;;;;0.40;0.40;;;;;;;23.12;58.02;102417.31;2103682;28;20048;-69
2022/08/29 08:56:34;;;;;;;0.40;0.40;;;;;;;23.26;57.58;102422.91;2096986;28;20090;-69
2022/08/29 08:57:43;;;;;;;0.30;0.30;;;;;;;23.36;57.87;102419.38;2101715;28;20880;-69
2022/08/29 08:58:52;;;;;;;0.30;0.30;;;;;;;23.43;57.48;102419.41;2098342;28;20052;-69
2022/08/29 08:59:57;;;;;;;0.40;0.40;;;;;;;23.46;57.41;102415.88;2098678;28;20052;-70
2022/08/29 09:01:03;;;;;;;0.40;0.40;;;;;;;23.42;57.35;102415.09;2099068;28;20404;-69
2022/08/29 09:02:15;;;;;;;0.40;0.40;;;;;;;23.45;57.77;102417.84;2098941;28;20741;-69
2022/08/29 09:03:49;;;;;;;0.30;0.30;;;;;;;23.44;57.75;102418.22;2103440;28;20060;-69
2022/08/29 09:05:03;;;;;;;0.32;0.32;;;;;;;23.43;57.99;102419.41;2097333;28;20052;-70
2022/08/29 09:06:12;;;;;;;0.30;0.30;;;;;;;23.44;58.32;102410.75;2100397;28;20094;-70
2022/08/29 09:07:32;;;;;;;0.40;0.40;;;;;;;23.30;58.64;102413.47;2098100;28;20040;-70
2022/08/29 09:08:47;;;;;;;0.40;0.40;;;;;;;23.25;58.85;102421.28;2100936;28;20167;-70
2022/08/29 09:10:08;;;;;;;0.40;0.40;;;;;;;23.17;59.47;102416.91;2104205;28;20036;-69
2022/08/29 09:11:23;;;;;;;0.40;0.40;;;;;;;23.13;59.19;102407.88;2102376;28;20048;-69
2022/08/29 09:12:40;;;;;;;0.40;0.40;;;;;;;23.12;59.33;102409.06;2103955;28;20537;-69
2022/08/29 09:13:55;;;;;;;0.40;0.40;;;;;;;23.10;59.83;102416.91;2101957;28;20060;-68
2022/08/29 09:15:08;;;;;;;0.40;0.40;;;;;;;23.07;59.65;102410.19;2102161;28;20492;-69
2022/08/29 09:16:26;;;;;;;0.40;0.40;;;;;;;23.00;59.51;102412.94;2094783;28;20056;-69
2022/08/29 09:17:41;;;;;;;0.40;0.40;;;;;;;23.01;59.79;102416.47;2092826;28;20063;-69
2022/08/29 09:18:48;;;;;;;0.40;0.40;;;;;;;22.96;60.16;102412.09;2103926;28;20052;-69
2022/08/29 09:20:00;;;;;;;0.40;0.40;;;;;;;22.92;59.97;102418.78;2100452;28;20092;-69
2022/08/29 09:21:13;;;;;;;0.40;0.40;;;;;;;22.81;60.22;102412.44;2103974;28;20438;-69
2022/08/29 09:22:46;;;;;;;0.30;0.30;;;;;;;22.77;60.54;102412.41;2104675;28;20056;-69
2022/08/29 09:23:58;;;;;;;0.40;0.40;;;;;;;22.75;60.84;102411.22;2093378;28;20040;-69
2022/08/29 09:25:09;;;;;;;0.40;0.40;;;;;;;22.75;60.81;102417.53;2095971;28;20403;-69
2022/08/29 09:26:21;;;;;;;0.40;0.40;;;;;;;22.72;61.06;102409.25;2101045;28;20052;-69
2022/08/29 09:27:29;;;;;;;0.40;0.40;;;;;;;22.76;61.23;102412.78;2098477;28;20044;-69
2022/08/29 09:28:38;;;;;;;0.30;0.30;;;;;;;22.79;61.01;102412.03;2099466;28;20534;-69
2022/08/29 09:29:44;;;;;;;0.30;0.30;;;;;;;22.87;60.79;102411.69;2102836;28;20051;-68
2022/08/29 09:31:17;;;;;;;0.40;0.40;;;;;;;22.76;60.38;102412.78;2111027;28;20077;-68
2022/08/29 09:32:23;;;;;;;0.40;0.40;;;;;;;22.89;60.26;102408.53;2102365;28;20415;-69
2022/08/29 09:33:45;;;;;;;0.43;0.43;;;;;;;22.86;59.59;102412.88;2099956;28;20048;-68
2022/08/29 09:34:58;;;;;;;0.40;0.40;;;;;;;22.97;59.79;102413.72;2097727;28;20047;-68
2022/08/29 09:36:33;;;;;;;0.40;0.40;;;;;;;22.97;59.54;102418.41;2098973;28;20510;-68
2022/08/29 09:37:40;;;;;;;0.30;0.30;;;;;;;22.99;59.30;102421.59;2101264;28;20071;-69
2022/08/29 09:38:45;;;;;;;0.40;0.40;;;;;;;23.01;59.24;102416.47;2096929;28;20044;-69
2022/08/29 09:39:57;;;;;;;0.40;0.40;;;;;;;22.96;58.84;102414.88;2098411;28;20093;-69
2022/08/29 09:41:06;;;;;;;0.30;0.30;;;;;;;22.96;60.08;102416.84;2111426;28;20120;-69
2022/08/29 09:42:20;;;;;;;0.30;0.30;;;;;;;22.92;61.35;102410.53;2104057;28;20590;-69
2022/08/29 09:43:45;;;;;;;0.30;0.30;;;;;;;22.86;62.60;102401.06;2104306;28;20051;-70
2022/08/29 09:44:56;;;;;;;0.30;0.30;;;;;;;22.81;62.61;102398.66;2098931;28;20056;-69
2022/08/29 09:46:21;;;;;;;0.30;0.30;;;;;;;22.68;65.61;102386.38;2095434;28;20389;-70
2022/08/29 09:47:33;;;;;;;0.30;0.30;;;;;;;22.67;64.84;102393.09;2095027;28;20048;-69
2022/08/29 09:48:42;;;;;;;0.30;0.30;;;;;;;22.57;65.13;102402.06;2098804;28;20127;-69
2022/08/29 09:50:19;;;;;;;0.30;0.30;;;;;;;22.39;66.16;102396.41;2098622;28;20071;-69
2022/08/29 09:51:27;;;;;;;0.40;0.40;;;;;;;22.37;65.93;102395.22;2090721;28;20085;-70
2022/08/29 09:52:33;;;;;;;0.40;0.40;;;;;;;22.34;65.96;102396.00;2083736;28;20096;-69
2022/08/29 09:53:37;;;;;;;0.30;0.30;;;;;;;22.30;66.79;102395.16;2092263;28;20056;-69
2022/08/29 09:54:45;;;;;;;0.38;0.38;;;;;;;22.25;67.37;102390.81;2098211;28;20119;-69
2022/08/29 09:55:49;;;;;;;0.35;0.35;;;;;;;22.24;67.00;102389.25;2100603;28;20047;-70
2022/08/29 09:56:57;;;;;;;0.43;0.43;;;;;;;22.25;66.97;102390.81;2098456;28;20060;-70
2022/08/29 09:58:05;;;;;;;0.40;0.40;;;;;;;22.23;66.61;102395.94;2103893;28;20059;-70
2022/08/29 09:59:19;;;;;;;0.40;0.40;;;;;;;22.15;67.46;102389.56;2102460;28;20055;-69
2022/08/29 10:00:31;;;;;;;0.40;0.40;;;;;;;22.11;67.32;102405.25;2101566;28;20052;-70
2022/08/29 10:01:33;;;;;;;0.40;0.40;;;;;;;22.05;67.50;102390.28;2101872;28;20052;-69
2022/08/29 10:02:47;;;;;;;0.40;0.40;;;;;;;22.00;67.34;102401.63;2104445;28;20048;-68
2022/08/29 10:03:55;;;;;;;0.45;0.45;;;;;;;22.00;67.90;102389.84;2098035;28;20081;-69
2022/08/29 10:05:04;;;;;;;0.40;0.40;;;;;;;21.97;67.24;102394.16;2097385;28;20466;-69
2022/08/29 10:06:16;;;;;;;0.50;0.50;;;;;;;21.96;67.55;102397.28;2104009;28;20048;-69
2022/08/29 10:07:23;;;;;;;0.40;0.40;;;;;;;21.94;67.55;102394.91;2104036;28;20113;-69
2022/08/29 10:08:33;;;;;;;0.40;0.40;;;;;;;21.95;67.53;102401.19;2101445;28;20040;-69
2022/08/29 10:09:55;;;;;;;0.40;0.40;;;;;;;21.83;68.38;102396.78;2100767;28;20090;-69
2022/08/29 10:11:04;;;;;;;0.50;0.50;;;;;;;21.88;67.49;102398.38;2094971;28;20105;-69
2022/08/29 10:12:16;;;;;;;0.40;0.40;;;;;;;21.86;67.88;102393.25;2090340;28;20179;-69
2022/08/29 10:13:23;;;;;;;0.45;0.45;;;;;;;21.88;67.95;102396.41;2103898;28;20078;-69
2022/08/29 10:14:37;;;;;;;0.40;0.40;;;;;;;21.88;67.83;102396.41;2101822;28;20086;-69
2022/08/29 10:15:44;;;;;;;0.40;0.40;;;;;;;21.86;68.33;102397.97;2104351;28;20060;-69
2022/08/29 10:18:19;;;;;;;0.40;0.40;;;;;;;21.84;67.39;102397.53;2102614;28;20052;-69
2022/08/29 10:18:27;;;;;;;;;;;;;;;21.51;68.72;102395.63;2104695;28;20051;-69
2022/08/29 10:19:30;;;;;;;0.40;0.40;;;;;;;21.65;67.93;102398.53;2102396;28;20140;-70
2022/08/29 10:20:49;;;;;;;0.40;0.40;;;;;;;21.68;67.84;102396.97;2103470;28;20056;-70
2022/08/29 10:22:02;;;;;;;0.45;0.45;;;;;;;21.64;67.57;102391.47;2102996;28;20048;-70
2022/08/29 10:23:11;;;;;;;0.30;0.30;;;;;;;21.69;67.69;102393.84;2100859;28;20893;-70
2022/08/29 10:24:31;;;;;;;0.40;0.40;;;;;;;21.67;67.06;102396.19;2100632;28;20552;-69
2022/08/29 10:25:35;;;;;;;0.40;0.40;;;;;;;21.60;67.77;102390.63;2098087;28;20105;-69
2022/08/29 10:26:47;;;;;;;0.40;0.40;;;;;;;21.65;68.46;102393.03;2104108;28;20474;-70
2022/08/29 10:27:56;;;;;;;0.50;0.50;;;;;;;21.66;67.84;102389.09;2099129;28;20168;-69
2022/08/29 10:29:08;;;;;;;0.40;0.40;;;;;;;21.69;67.40;102388.34;2103034;28;20496;-69
2022/08/29 10:30:14;;;;;;;0.50;0.50;;;;;;;21.68;67.25;102392.28;2104145;28;20151;-69
2022/08/29 10:31:26;;;;;;;0.50;0.50;;;;;;;21.68;67.08;102403.25;2098053;28;20102;-69
2022/08/29 10:32:43;;;;;;;0.43;0.43;;;;;;;21.58;67.08;102397.66;2098640;28;20056;-69
2022/08/29 10:34:06;;;;;;;0.50;0.50;;;;;;;21.47;67.88;102397.53;2100153;28;20117;-69
2022/08/29 10:35:16;;;;;;;0.40;0.40;;;;;;;21.40;67.38;102402.19;2093723;28;20044;-70
2022/08/29 10:36:26;;;;;;;0.40;0.40;;;;;;;21.40;67.46;102407.66;2101042;28;20079;-70
2022/08/29 10:37:46;;;;;;;0.40;0.40;;;;;;;21.33;67.91;102397.38;2097277;28;20132;-70
2022/08/29 10:38:56;;;;;;;0.40;0.40;;;;;;;21.34;67.97;102404.50;2103045;28;20052;-70
2022/08/29 10:40:04;;;;;;;0.40;0.40;;;;;;;21.33;68.16;102400.13;2101320;28;20044;-69
2022/08/29 10:41:19;;;;;;;0.40;0.40;;;;;;;21.32;68.83;102395.03;2104928;28;20415;-70
2022/08/29 10:42:26;;;;;;;0.40;0.40;;;;;;;21.34;67.41;102399.00;2102264;28;20863;-69
2022/08/29 10:43:37;;;;;;;0.40;0.40;;;;;;;21.31;67.78;102396.97;2102063;28;20048;-70
2022/08/29 10:44:56;;;;;;;0.40;0.40;;;;;;;21.30;67.74;102403.63;2104660;28;20047;-69
2022/08/29 10:46:23;;;;;;;0.40;0.40;;;;;;;21.28;67.81;102394.97;2105437;28;20086;-70
2022/08/29 10:47:32;;;;;;;0.40;0.40;;;;;;;21.35;68.09;102399.75;2100272;28;20085;-69
2022/08/29 10:48:38;;;;;;;0.40;0.40;;;;;;;21.40;67.88;102399.44;2104897;28;20055;-69
2022/08/29 10:49:58;;;;;;;0.30;0.30;;;;;;;21.38;67.27;102399.81;2098944;28;20044;-69
2022/08/29 10:51:11;;;;;;;0.30;0.30;;;;;;;21.41;67.13;102404.53;2103607;28;20435;-69
2022/08/29 10:52:28;;;;;;;0.30;0.30;;;;;;;21.38;67.05;102394.31;2101693;28;20063;-70
2022/08/29 10:53:35;;;;;;;0.40;0.40;;;;;;;21.39;67.72;102395.09;2105244;28;20119;-69
2022/08/29 10:54:48;;;;;;;0.40;0.40;;;;;;;21.39;67.38;102395.88;2105026;28;20079;-70
2022/08/29 10:55:55;;;;;;;0.40;0.40;;;;;;;21.40;67.79;102394.72;2105167;28;20507;-69
2022/08/29 10:56:59;;;;;;;0.40;0.40;;;;;;;21.47;67.03;102396.78;2105301;28;20079;-70
2022/08/29 10:58:19;;;;;;;0.40;0.40;;;;;;;21.47;67.41;102394.78;2104908;28;20324;-69
2022/08/29 10:59:34;;;;;;;0.40;0.40;;;;;;;21.38;67.44;102388.81;2104755;28;20055;-69
2022/08/29 11:00:42;;;;;;;0.40;0.40;;;;;;;21.44;67.70;102387.31;2101645;28;20044;-69
2022/08/29 11:01:51;;;;;;;0.40;0.40;;;;;;;21.46;66.98;102393.22;2103534;28;20051;-69
2022/08/29 11:03:03;;;;;;;0.32;0.32;;;;;;;21.47;66.45;102391.28;2102069;28;20112;-69
2022/08/29 11:04:17;;;;;;;0.38;0.38;;;;;;;21.48;66.66;102398.34;2104638;28;20134;-69
2022/08/29 11:05:23;;;;;;;0.30;0.30;;;;;;;21.52;65.98;102394.47;2102130;28;20123;-68
2022/08/29 11:06:29;;;;;;;0.40;0.40;;;;;;;21.54;66.31;102394.88;2104627;28;20048;-69
2022/08/29 11:07:42;;;;;;;0.30;0.30;;;;;;;21.53;66.03;102392.50;2104540;28;20062;-69
2022/08/29 11:08:55;;;;;;;0.40;0.40;;;;;;;21.52;66.15;102388.97;2102021;28;20091;-69
2022/08/29 11:10:03;;;;;;;0.40;0.40;;;;;;;21.57;65.85;102396.06;2098502;28;20109;-68
2022/08/29 11:11:05;;;;;;;0.40;0.40;;;;;;;21.61;66.05;102397.69;2101932;28;20048;-69
2022/08/29 11:12:17;;;;;;;0.40;0.40;;;;;;;21.65;65.16;102401.28;2102136;28;20059;-68
2022/08/29 11:13:26;;;;;;;0.40;0.40;;;;;;;21.67;64.96;102400.91;2104678;28;20051;-70
2022/08/29 11:14:35;;;;;;;0.40;0.40;;;;;;;21.64;64.69;102398.91;2104648;28;20091;-69
2022/08/29 11:15:42;;;;;;;0.40;0.40;;;;;;;21.69;64.39;102396.59;2100169;28;20392;-69
2022/08/29 11:16:50;;;;;;;0.40;0.40;;;;;;;21.73;64.42;102391.94;2101845;28;20055;-69
2022/08/29 11:17:57;;;;;;;0.40;0.40;;;;;;;21.77;65.33;102395.50;2105043;28;20063;-69
2022/08/29 11:19:05;;;;;;;0.40;0.40;;;;;;;21.82;64.32;102397.94;2104756;28;20119;-69
2022/08/29 11:20:12;;;;;;;0.47;0.47;;;;;;;21.86;64.68;102404.25;2105033;28;20131;-69
2022/08/29 11:21:26;;;;;;;0.40;0.40;;;;;;;21.87;64.09;102407.78;2104917;28;20055;-69
2022/08/29 11:22:32;;;;;;;0.50;0.50;;;;;;;21.91;64.43;102394.88;2105271;28;20044;-69
2022/08/29 11:23:39;;;;;;;0.40;0.40;;;;;;;21.96;63.89;102402.78;2105385;28;20126;-69